<?xml version="1.0" encoding="UTF-8" standalone="no" ?>
<gpx xmlns="http://www.topografix.com/GPX/1/1" xmlns:xsi="http://www.w3.org/2001/XMLSchema-instance" xsi:schemaLocation="http://www.topografix.com/GPX/1/1 http://www.topografix.com/GPX/1/1/gpx.xsd" version="1.1" creator="VisuGPX - https://www.visugpx.com">
  <metadata>
    <name>Saillagouse</name>
    <desc><![CDATA[de la ville au village]]></desc>
  </metadata>
  <trk>
    <name><![CDATA[2013-08-10-02]]></name>
    <trkseg>
      <trkpt lat="42.45815" lon="2.03887">
        <ele>1275.2</ele>
        <time>2013-08-10T09:34:55Z</time>
      </trkpt>
      <trkpt lat="42.45814" lon="2.03887">
        <ele>1275.2</ele>
        <time>2013-08-10T09:34:56Z</time>
      </trkpt>
      <trkpt lat="42.45809" lon="2.03894">
        <ele>1276.1</ele>
        <time>2013-08-10T09:35:20Z</time>
      </trkpt>
      <trkpt lat="42.45806" lon="2.03898">
        <ele>1276</ele>
        <time>2013-08-10T09:35:24Z</time>
      </trkpt>
      <trkpt lat="42.45804" lon="2.03903">
        <ele>1275.3</ele>
        <time>2013-08-10T09:35:27Z</time>
      </trkpt>
      <trkpt lat="42.45802" lon="2.03907">
        <ele>1275.2</ele>
        <time>2013-08-10T09:35:30Z</time>
      </trkpt>
      <trkpt lat="42.458" lon="2.03911">
        <ele>1275.6</ele>
        <time>2013-08-10T09:35:33Z</time>
      </trkpt>
      <trkpt lat="42.45801" lon="2.03917">
        <ele>1275.5</ele>
        <time>2013-08-10T09:35:36Z</time>
      </trkpt>
      <trkpt lat="42.45802" lon="2.03922">
        <ele>1276.1</ele>
        <time>2013-08-10T09:35:40Z</time>
      </trkpt>
      <trkpt lat="42.45803" lon="2.03927">
        <ele>1276.5</ele>
        <time>2013-08-10T09:35:44Z</time>
      </trkpt>
      <trkpt lat="42.45803" lon="2.03933">
        <ele>1276.7</ele>
        <time>2013-08-10T09:35:47Z</time>
      </trkpt>
      <trkpt lat="42.45803" lon="2.03938">
        <ele>1276.4</ele>
        <time>2013-08-10T09:35:50Z</time>
      </trkpt>
      <trkpt lat="42.45806" lon="2.03942">
        <ele>1276.2</ele>
        <time>2013-08-10T09:35:53Z</time>
      </trkpt>
      <trkpt lat="42.45808" lon="2.03947">
        <ele>1275.5</ele>
        <time>2013-08-10T09:35:57Z</time>
      </trkpt>
      <trkpt lat="42.45808" lon="2.03948">
        <ele>1275.3</ele>
        <time>2013-08-10T09:35:58Z</time>
      </trkpt>
      <trkpt lat="42.45806" lon="2.03957">
        <ele>1275.4</ele>
        <time>2013-08-10T09:36:04Z</time>
      </trkpt>
      <trkpt lat="42.45804" lon="2.03961">
        <ele>1276.3</ele>
        <time>2013-08-10T09:36:06Z</time>
      </trkpt>
      <trkpt lat="42.45801" lon="2.03964">
        <ele>1277.1</ele>
        <time>2013-08-10T09:36:09Z</time>
      </trkpt>
      <trkpt lat="42.458" lon="2.0397">
        <ele>1277.6</ele>
        <time>2013-08-10T09:36:12Z</time>
      </trkpt>
      <trkpt lat="42.45799" lon="2.03975">
        <ele>1277.8</ele>
        <time>2013-08-10T09:36:14Z</time>
      </trkpt>
      <trkpt lat="42.45799" lon="2.0398">
        <ele>1278.5</ele>
        <time>2013-08-10T09:36:17Z</time>
      </trkpt>
      <trkpt lat="42.45799" lon="2.03986">
        <ele>1277.8</ele>
        <time>2013-08-10T09:36:20Z</time>
      </trkpt>
      <trkpt lat="42.45797" lon="2.03991">
        <ele>1278.6</ele>
        <time>2013-08-10T09:36:24Z</time>
      </trkpt>
      <trkpt lat="42.45795" lon="2.03996">
        <ele>1278.8</ele>
        <time>2013-08-10T09:36:27Z</time>
      </trkpt>
      <trkpt lat="42.45793" lon="2.04">
        <ele>1278.8</ele>
        <time>2013-08-10T09:36:30Z</time>
      </trkpt>
      <trkpt lat="42.45791" lon="2.04004">
        <ele>1279.2</ele>
        <time>2013-08-10T09:36:34Z</time>
      </trkpt>
      <trkpt lat="42.45788" lon="2.04008">
        <ele>1279</ele>
        <time>2013-08-10T09:36:37Z</time>
      </trkpt>
      <trkpt lat="42.45785" lon="2.0401">
        <ele>1279.5</ele>
        <time>2013-08-10T09:36:40Z</time>
      </trkpt>
      <trkpt lat="42.45781" lon="2.04013">
        <ele>1279.4</ele>
        <time>2013-08-10T09:36:43Z</time>
      </trkpt>
      <trkpt lat="42.45777" lon="2.04016">
        <ele>1279.2</ele>
        <time>2013-08-10T09:36:46Z</time>
      </trkpt>
      <trkpt lat="42.45774" lon="2.04014">
        <ele>1279.6</ele>
        <time>2013-08-10T09:36:51Z</time>
      </trkpt>
      <trkpt lat="42.45771" lon="2.04014">
        <ele>1279.3</ele>
        <time>2013-08-10T09:36:53Z</time>
      </trkpt>
      <trkpt lat="42.45768" lon="2.04017">
        <ele>1279.1</ele>
        <time>2013-08-10T09:36:56Z</time>
      </trkpt>
      <trkpt lat="42.45767" lon="2.04022">
        <ele>1279.7</ele>
        <time>2013-08-10T09:37:00Z</time>
      </trkpt>
      <trkpt lat="42.45767" lon="2.04024">
        <ele>1279.8</ele>
        <time>2013-08-10T09:37:01Z</time>
      </trkpt>
      <trkpt lat="42.45767" lon="2.04033">
        <ele>1279.6</ele>
        <time>2013-08-10T09:37:07Z</time>
      </trkpt>
      <trkpt lat="42.45768" lon="2.04038">
        <ele>1279.7</ele>
        <time>2013-08-10T09:37:10Z</time>
      </trkpt>
      <trkpt lat="42.45767" lon="2.04044">
        <ele>1279.7</ele>
        <time>2013-08-10T09:37:14Z</time>
      </trkpt>
      <trkpt lat="42.45766" lon="2.04048">
        <ele>1280.3</ele>
        <time>2013-08-10T09:37:17Z</time>
      </trkpt>
      <trkpt lat="42.45767" lon="2.04053">
        <ele>1280.5</ele>
        <time>2013-08-10T09:37:20Z</time>
      </trkpt>
      <trkpt lat="42.45764" lon="2.04058">
        <ele>1280.4</ele>
        <time>2013-08-10T09:37:23Z</time>
      </trkpt>
      <trkpt lat="42.45763" lon="2.04063">
        <ele>1280.4</ele>
        <time>2013-08-10T09:37:26Z</time>
      </trkpt>
      <trkpt lat="42.4576" lon="2.04068">
        <ele>1279.9</ele>
        <time>2013-08-10T09:37:29Z</time>
      </trkpt>
      <trkpt lat="42.45759" lon="2.04071">
        <ele>1279.9</ele>
        <time>2013-08-10T09:37:31Z</time>
      </trkpt>
      <trkpt lat="42.45756" lon="2.04076">
        <ele>1280</ele>
        <time>2013-08-10T09:37:34Z</time>
      </trkpt>
      <trkpt lat="42.45753" lon="2.0408">
        <ele>1279.6</ele>
        <time>2013-08-10T09:37:37Z</time>
      </trkpt>
      <trkpt lat="42.45751" lon="2.04084">
        <ele>1280</ele>
        <time>2013-08-10T09:37:39Z</time>
      </trkpt>
      <trkpt lat="42.4575" lon="2.04088">
        <ele>1280.2</ele>
        <time>2013-08-10T09:37:41Z</time>
      </trkpt>
      <trkpt lat="42.45748" lon="2.04092">
        <ele>1280.2</ele>
        <time>2013-08-10T09:37:44Z</time>
      </trkpt>
      <trkpt lat="42.45747" lon="2.04097">
        <ele>1280.1</ele>
        <time>2013-08-10T09:37:47Z</time>
      </trkpt>
      <trkpt lat="42.45745" lon="2.041">
        <ele>1280.2</ele>
        <time>2013-08-10T09:37:49Z</time>
      </trkpt>
      <trkpt lat="42.45743" lon="2.04106">
        <ele>1280.3</ele>
        <time>2013-08-10T09:37:52Z</time>
      </trkpt>
      <trkpt lat="42.45742" lon="2.04109">
        <ele>1280.3</ele>
        <time>2013-08-10T09:37:54Z</time>
      </trkpt>
      <trkpt lat="42.45739" lon="2.04113">
        <ele>1279.8</ele>
        <time>2013-08-10T09:37:57Z</time>
      </trkpt>
      <trkpt lat="42.45737" lon="2.04118">
        <ele>1279.3</ele>
        <time>2013-08-10T09:38:00Z</time>
      </trkpt>
      <trkpt lat="42.45736" lon="2.04122">
        <ele>1279.3</ele>
        <time>2013-08-10T09:38:02Z</time>
      </trkpt>
      <trkpt lat="42.45736" lon="2.04124">
        <ele>1279.7</ele>
        <time>2013-08-10T09:38:03Z</time>
      </trkpt>
      <trkpt lat="42.45734" lon="2.04129">
        <ele>1280.1</ele>
        <time>2013-08-10T09:38:06Z</time>
      </trkpt>
      <trkpt lat="42.45733" lon="2.04135">
        <ele>1280</ele>
        <time>2013-08-10T09:38:09Z</time>
      </trkpt>
      <trkpt lat="42.45732" lon="2.04139">
        <ele>1280.4</ele>
        <time>2013-08-10T09:38:11Z</time>
      </trkpt>
      <trkpt lat="42.45731" lon="2.04144">
        <ele>1280.7</ele>
        <time>2013-08-10T09:38:14Z</time>
      </trkpt>
      <trkpt lat="42.45729" lon="2.04149">
        <ele>1280.7</ele>
        <time>2013-08-10T09:38:18Z</time>
      </trkpt>
      <trkpt lat="42.4573" lon="2.04154">
        <ele>1281.2</ele>
        <time>2013-08-10T09:38:21Z</time>
      </trkpt>
      <trkpt lat="42.45729" lon="2.04159">
        <ele>1281.1</ele>
        <time>2013-08-10T09:38:24Z</time>
      </trkpt>
      <trkpt lat="42.45728" lon="2.04165">
        <ele>1280.8</ele>
        <time>2013-08-10T09:38:27Z</time>
      </trkpt>
      <trkpt lat="42.45727" lon="2.04171">
        <ele>1281.1</ele>
        <time>2013-08-10T09:38:30Z</time>
      </trkpt>
      <trkpt lat="42.45728" lon="2.04176">
        <ele>1281.4</ele>
        <time>2013-08-10T09:38:33Z</time>
      </trkpt>
      <trkpt lat="42.45728" lon="2.04181">
        <ele>1281.7</ele>
        <time>2013-08-10T09:38:35Z</time>
      </trkpt>
      <trkpt lat="42.45728" lon="2.04187">
        <ele>1282.1</ele>
        <time>2013-08-10T09:38:38Z</time>
      </trkpt>
      <trkpt lat="42.45729" lon="2.04193">
        <ele>1282.2</ele>
        <time>2013-08-10T09:38:41Z</time>
      </trkpt>
      <trkpt lat="42.45729" lon="2.04198">
        <ele>1282.3</ele>
        <time>2013-08-10T09:38:44Z</time>
      </trkpt>
      <trkpt lat="42.45729" lon="2.04204">
        <ele>1282.1</ele>
        <time>2013-08-10T09:38:47Z</time>
      </trkpt>
      <trkpt lat="42.45729" lon="2.04208">
        <ele>1282.7</ele>
        <time>2013-08-10T09:38:49Z</time>
      </trkpt>
      <trkpt lat="42.4573" lon="2.04214">
        <ele>1282.7</ele>
        <time>2013-08-10T09:38:52Z</time>
      </trkpt>
      <trkpt lat="42.45731" lon="2.0422">
        <ele>1282.3</ele>
        <time>2013-08-10T09:38:55Z</time>
      </trkpt>
      <trkpt lat="42.45731" lon="2.04225">
        <ele>1282.3</ele>
        <time>2013-08-10T09:38:58Z</time>
      </trkpt>
      <trkpt lat="42.45731" lon="2.0423">
        <ele>1282.5</ele>
        <time>2013-08-10T09:39:01Z</time>
      </trkpt>
      <trkpt lat="42.45733" lon="2.04235">
        <ele>1282.9</ele>
        <time>2013-08-10T09:39:04Z</time>
      </trkpt>
      <trkpt lat="42.45733" lon="2.04237">
        <ele>1283.1</ele>
        <time>2013-08-10T09:39:05Z</time>
      </trkpt>
      <trkpt lat="42.45736" lon="2.04245">
        <ele>1283.3</ele>
        <time>2013-08-10T09:39:10Z</time>
      </trkpt>
      <trkpt lat="42.45738" lon="2.04248">
        <ele>1283.3</ele>
        <time>2013-08-10T09:39:12Z</time>
      </trkpt>
      <trkpt lat="42.4574" lon="2.04253">
        <ele>1283.2</ele>
        <time>2013-08-10T09:39:15Z</time>
      </trkpt>
      <trkpt lat="42.45743" lon="2.04257">
        <ele>1283.6</ele>
        <time>2013-08-10T09:39:17Z</time>
      </trkpt>
      <trkpt lat="42.45745" lon="2.0426">
        <ele>1284.1</ele>
        <time>2013-08-10T09:39:19Z</time>
      </trkpt>
      <trkpt lat="42.45747" lon="2.04263">
        <ele>1284.1</ele>
        <time>2013-08-10T09:39:21Z</time>
      </trkpt>
      <trkpt lat="42.45749" lon="2.04267">
        <ele>1284.3</ele>
        <time>2013-08-10T09:39:23Z</time>
      </trkpt>
      <trkpt lat="42.45751" lon="2.04272">
        <ele>1284.6</ele>
        <time>2013-08-10T09:39:26Z</time>
      </trkpt>
      <trkpt lat="42.45754" lon="2.04277">
        <ele>1284.8</ele>
        <time>2013-08-10T09:39:29Z</time>
      </trkpt>
      <trkpt lat="42.45755" lon="2.04283">
        <ele>1285</ele>
        <time>2013-08-10T09:39:32Z</time>
      </trkpt>
      <trkpt lat="42.45758" lon="2.04287">
        <ele>1285.4</ele>
        <time>2013-08-10T09:39:35Z</time>
      </trkpt>
      <trkpt lat="42.4576" lon="2.04292">
        <ele>1285.1</ele>
        <time>2013-08-10T09:39:38Z</time>
      </trkpt>
      <trkpt lat="42.45762" lon="2.04296">
        <ele>1285.6</ele>
        <time>2013-08-10T09:39:41Z</time>
      </trkpt>
      <trkpt lat="42.45764" lon="2.043">
        <ele>1285.5</ele>
        <time>2013-08-10T09:39:44Z</time>
      </trkpt>
      <trkpt lat="42.45765" lon="2.04305">
        <ele>1286</ele>
        <time>2013-08-10T09:39:47Z</time>
      </trkpt>
      <trkpt lat="42.45767" lon="2.0431">
        <ele>1286.3</ele>
        <time>2013-08-10T09:39:50Z</time>
      </trkpt>
      <trkpt lat="42.45768" lon="2.04315">
        <ele>1287.3</ele>
        <time>2013-08-10T09:39:54Z</time>
      </trkpt>
      <trkpt lat="42.45768" lon="2.04321">
        <ele>1286.9</ele>
        <time>2013-08-10T09:39:58Z</time>
      </trkpt>
      <trkpt lat="42.45768" lon="2.04325">
        <ele>1287.2</ele>
        <time>2013-08-10T09:40:01Z</time>
      </trkpt>
      <trkpt lat="42.45767" lon="2.0433">
        <ele>1287.7</ele>
        <time>2013-08-10T09:40:04Z</time>
      </trkpt>
      <trkpt lat="42.45764" lon="2.04335">
        <ele>1288.2</ele>
        <time>2013-08-10T09:40:08Z</time>
      </trkpt>
      <trkpt lat="42.45764" lon="2.04336">
        <ele>1288.4</ele>
        <time>2013-08-10T09:40:09Z</time>
      </trkpt>
      <trkpt lat="42.45762" lon="2.04345">
        <ele>1288.7</ele>
        <time>2013-08-10T09:40:14Z</time>
      </trkpt>
      <trkpt lat="42.4576" lon="2.0435">
        <ele>1288.7</ele>
        <time>2013-08-10T09:40:17Z</time>
      </trkpt>
      <trkpt lat="42.45758" lon="2.04353">
        <ele>1289.3</ele>
        <time>2013-08-10T09:40:20Z</time>
      </trkpt>
      <trkpt lat="42.45756" lon="2.04358">
        <ele>1289.9</ele>
        <time>2013-08-10T09:40:23Z</time>
      </trkpt>
      <trkpt lat="42.45754" lon="2.04363">
        <ele>1290.4</ele>
        <time>2013-08-10T09:40:27Z</time>
      </trkpt>
      <trkpt lat="42.45752" lon="2.04367">
        <ele>1290.8</ele>
        <time>2013-08-10T09:40:30Z</time>
      </trkpt>
      <trkpt lat="42.45751" lon="2.04372">
        <ele>1290.9</ele>
        <time>2013-08-10T09:40:33Z</time>
      </trkpt>
      <trkpt lat="42.45749" lon="2.04376">
        <ele>1291.2</ele>
        <time>2013-08-10T09:40:36Z</time>
      </trkpt>
      <trkpt lat="42.45747" lon="2.04381">
        <ele>1291.3</ele>
        <time>2013-08-10T09:40:39Z</time>
      </trkpt>
      <trkpt lat="42.45745" lon="2.04385">
        <ele>1291.6</ele>
        <time>2013-08-10T09:40:42Z</time>
      </trkpt>
      <trkpt lat="42.45744" lon="2.0439">
        <ele>1291.9</ele>
        <time>2013-08-10T09:40:45Z</time>
      </trkpt>
      <trkpt lat="42.45744" lon="2.04396">
        <ele>1291.7</ele>
        <time>2013-08-10T09:40:48Z</time>
      </trkpt>
      <trkpt lat="42.45743" lon="2.04401">
        <ele>1292</ele>
        <time>2013-08-10T09:40:51Z</time>
      </trkpt>
      <trkpt lat="42.45744" lon="2.04406">
        <ele>1292.1</ele>
        <time>2013-08-10T09:40:54Z</time>
      </trkpt>
      <trkpt lat="42.45744" lon="2.04411">
        <ele>1292.5</ele>
        <time>2013-08-10T09:40:57Z</time>
      </trkpt>
      <trkpt lat="42.45744" lon="2.04416">
        <ele>1292.9</ele>
        <time>2013-08-10T09:41:00Z</time>
      </trkpt>
      <trkpt lat="42.45744" lon="2.04421">
        <ele>1292.5</ele>
        <time>2013-08-10T09:41:03Z</time>
      </trkpt>
      <trkpt lat="42.45742" lon="2.04426">
        <ele>1292.3</ele>
        <time>2013-08-10T09:41:07Z</time>
      </trkpt>
      <trkpt lat="42.45741" lon="2.04431">
        <ele>1292.5</ele>
        <time>2013-08-10T09:41:10Z</time>
      </trkpt>
      <trkpt lat="42.45741" lon="2.04432">
        <ele>1292.5</ele>
        <time>2013-08-10T09:41:11Z</time>
      </trkpt>
      <trkpt lat="42.45739" lon="2.04439">
        <ele>1292.5</ele>
        <time>2013-08-10T09:41:16Z</time>
      </trkpt>
      <trkpt lat="42.45737" lon="2.04444">
        <ele>1293</ele>
        <time>2013-08-10T09:41:19Z</time>
      </trkpt>
      <trkpt lat="42.45736" lon="2.0445">
        <ele>1293.2</ele>
        <time>2013-08-10T09:41:22Z</time>
      </trkpt>
      <trkpt lat="42.45736" lon="2.04455">
        <ele>1293.5</ele>
        <time>2013-08-10T09:41:25Z</time>
      </trkpt>
      <trkpt lat="42.45736" lon="2.0446">
        <ele>1294</ele>
        <time>2013-08-10T09:41:28Z</time>
      </trkpt>
      <trkpt lat="42.45735" lon="2.04466">
        <ele>1294.2</ele>
        <time>2013-08-10T09:41:31Z</time>
      </trkpt>
      <trkpt lat="42.45734" lon="2.04472">
        <ele>1294</ele>
        <time>2013-08-10T09:41:34Z</time>
      </trkpt>
      <trkpt lat="42.45732" lon="2.04476">
        <ele>1294.1</ele>
        <time>2013-08-10T09:41:37Z</time>
      </trkpt>
      <trkpt lat="42.45729" lon="2.04479">
        <ele>1294.1</ele>
        <time>2013-08-10T09:41:39Z</time>
      </trkpt>
      <trkpt lat="42.45726" lon="2.04483">
        <ele>1295</ele>
        <time>2013-08-10T09:41:42Z</time>
      </trkpt>
      <trkpt lat="42.45724" lon="2.04487">
        <ele>1295.5</ele>
        <time>2013-08-10T09:41:45Z</time>
      </trkpt>
      <trkpt lat="42.45721" lon="2.04489">
        <ele>1295.6</ele>
        <time>2013-08-10T09:41:48Z</time>
      </trkpt>
      <trkpt lat="42.45718" lon="2.04492">
        <ele>1295.8</ele>
        <time>2013-08-10T09:41:51Z</time>
      </trkpt>
      <trkpt lat="42.45715" lon="2.04496">
        <ele>1295.7</ele>
        <time>2013-08-10T09:41:54Z</time>
      </trkpt>
      <trkpt lat="42.45712" lon="2.04498">
        <ele>1295.7</ele>
        <time>2013-08-10T09:41:57Z</time>
      </trkpt>
      <trkpt lat="42.45709" lon="2.04501">
        <ele>1295.4</ele>
        <time>2013-08-10T09:42:00Z</time>
      </trkpt>
      <trkpt lat="42.45706" lon="2.04505">
        <ele>1295.6</ele>
        <time>2013-08-10T09:42:04Z</time>
      </trkpt>
      <trkpt lat="42.45703" lon="2.0451">
        <ele>1295.7</ele>
        <time>2013-08-10T09:42:09Z</time>
      </trkpt>
      <trkpt lat="42.45701" lon="2.04513">
        <ele>1295.9</ele>
        <time>2013-08-10T09:42:12Z</time>
      </trkpt>
      <trkpt lat="42.457" lon="2.04515">
        <ele>1295.9</ele>
        <time>2013-08-10T09:42:13Z</time>
      </trkpt>
      <trkpt lat="42.45696" lon="2.04521">
        <ele>1295.7</ele>
        <time>2013-08-10T09:42:18Z</time>
      </trkpt>
      <trkpt lat="42.45694" lon="2.04525">
        <ele>1295.6</ele>
        <time>2013-08-10T09:42:21Z</time>
      </trkpt>
      <trkpt lat="42.45692" lon="2.04528">
        <ele>1295.6</ele>
        <time>2013-08-10T09:42:24Z</time>
      </trkpt>
      <trkpt lat="42.45689" lon="2.04533">
        <ele>1296.2</ele>
        <time>2013-08-10T09:42:27Z</time>
      </trkpt>
      <trkpt lat="42.45687" lon="2.04537">
        <ele>1296.3</ele>
        <time>2013-08-10T09:42:30Z</time>
      </trkpt>
      <trkpt lat="42.45685" lon="2.04542">
        <ele>1296.2</ele>
        <time>2013-08-10T09:42:33Z</time>
      </trkpt>
      <trkpt lat="42.45683" lon="2.04547">
        <ele>1296</ele>
        <time>2013-08-10T09:42:36Z</time>
      </trkpt>
      <trkpt lat="42.4568" lon="2.04551">
        <ele>1296.2</ele>
        <time>2013-08-10T09:42:39Z</time>
      </trkpt>
      <trkpt lat="42.45677" lon="2.04555">
        <ele>1295.9</ele>
        <time>2013-08-10T09:42:42Z</time>
      </trkpt>
      <trkpt lat="42.45675" lon="2.04559">
        <ele>1295.9</ele>
        <time>2013-08-10T09:42:44Z</time>
      </trkpt>
      <trkpt lat="42.45673" lon="2.04564">
        <ele>1296.1</ele>
        <time>2013-08-10T09:42:47Z</time>
      </trkpt>
      <trkpt lat="42.45672" lon="2.04569">
        <ele>1296.3</ele>
        <time>2013-08-10T09:42:50Z</time>
      </trkpt>
      <trkpt lat="42.45672" lon="2.04574">
        <ele>1296.1</ele>
        <time>2013-08-10T09:42:53Z</time>
      </trkpt>
      <trkpt lat="42.45672" lon="2.0458">
        <ele>1296.1</ele>
        <time>2013-08-10T09:42:56Z</time>
      </trkpt>
      <trkpt lat="42.45673" lon="2.04584">
        <ele>1296.7</ele>
        <time>2013-08-10T09:42:58Z</time>
      </trkpt>
      <trkpt lat="42.45673" lon="2.04588">
        <ele>1296.7</ele>
        <time>2013-08-10T09:43:00Z</time>
      </trkpt>
      <trkpt lat="42.45674" lon="2.04593">
        <ele>1296.4</ele>
        <time>2013-08-10T09:43:02Z</time>
      </trkpt>
      <trkpt lat="42.45675" lon="2.04597">
        <ele>1296.4</ele>
        <time>2013-08-10T09:43:04Z</time>
      </trkpt>
      <trkpt lat="42.45676" lon="2.04601">
        <ele>1296.4</ele>
        <time>2013-08-10T09:43:06Z</time>
      </trkpt>
      <trkpt lat="42.45677" lon="2.04607">
        <ele>1296.3</ele>
        <time>2013-08-10T09:43:09Z</time>
      </trkpt>
      <trkpt lat="42.45678" lon="2.0461">
        <ele>1296.7</ele>
        <time>2013-08-10T09:43:11Z</time>
      </trkpt>
      <trkpt lat="42.45681" lon="2.04614">
        <ele>1296.4</ele>
        <time>2013-08-10T09:43:13Z</time>
      </trkpt>
      <trkpt lat="42.45682" lon="2.04616">
        <ele>1296.1</ele>
        <time>2013-08-10T09:43:14Z</time>
      </trkpt>
      <trkpt lat="42.45684" lon="2.04625">
        <ele>1296.6</ele>
        <time>2013-08-10T09:43:19Z</time>
      </trkpt>
      <trkpt lat="42.45684" lon="2.04631">
        <ele>1296.6</ele>
        <time>2013-08-10T09:43:23Z</time>
      </trkpt>
      <trkpt lat="42.45684" lon="2.04636">
        <ele>1297.3</ele>
        <time>2013-08-10T09:43:27Z</time>
      </trkpt>
      <trkpt lat="42.45683" lon="2.04642">
        <ele>1297.4</ele>
        <time>2013-08-10T09:43:31Z</time>
      </trkpt>
      <trkpt lat="42.45682" lon="2.04647">
        <ele>1297.9</ele>
        <time>2013-08-10T09:43:35Z</time>
      </trkpt>
      <trkpt lat="42.45679" lon="2.04651">
        <ele>1298.4</ele>
        <time>2013-08-10T09:43:39Z</time>
      </trkpt>
      <trkpt lat="42.45677" lon="2.04656">
        <ele>1298.8</ele>
        <time>2013-08-10T09:43:43Z</time>
      </trkpt>
      <trkpt lat="42.45675" lon="2.0466">
        <ele>1298.4</ele>
        <time>2013-08-10T09:43:46Z</time>
      </trkpt>
      <trkpt lat="42.45673" lon="2.04664">
        <ele>1298.4</ele>
        <time>2013-08-10T09:43:49Z</time>
      </trkpt>
      <trkpt lat="42.45671" lon="2.04668">
        <ele>1298.9</ele>
        <time>2013-08-10T09:43:52Z</time>
      </trkpt>
      <trkpt lat="42.45668" lon="2.04672">
        <ele>1298.9</ele>
        <time>2013-08-10T09:43:55Z</time>
      </trkpt>
      <trkpt lat="42.45665" lon="2.04676">
        <ele>1298.9</ele>
        <time>2013-08-10T09:43:58Z</time>
      </trkpt>
      <trkpt lat="42.45663" lon="2.0468">
        <ele>1299.5</ele>
        <time>2013-08-10T09:44:01Z</time>
      </trkpt>
      <trkpt lat="42.4566" lon="2.04684">
        <ele>1300.1</ele>
        <time>2013-08-10T09:44:04Z</time>
      </trkpt>
      <trkpt lat="42.45658" lon="2.04688">
        <ele>1300.1</ele>
        <time>2013-08-10T09:44:07Z</time>
      </trkpt>
      <trkpt lat="42.45655" lon="2.04692">
        <ele>1300.3</ele>
        <time>2013-08-10T09:44:10Z</time>
      </trkpt>
      <trkpt lat="42.45653" lon="2.04696">
        <ele>1300.5</ele>
        <time>2013-08-10T09:44:13Z</time>
      </trkpt>
      <trkpt lat="42.4565" lon="2.04701">
        <ele>1300.6</ele>
        <time>2013-08-10T09:44:16Z</time>
      </trkpt>
      <trkpt lat="42.45649" lon="2.04703">
        <ele>1300.6</ele>
        <time>2013-08-10T09:44:17Z</time>
      </trkpt>
      <trkpt lat="42.45647" lon="2.0471">
        <ele>1301.2</ele>
        <time>2013-08-10T09:44:22Z</time>
      </trkpt>
      <trkpt lat="42.45644" lon="2.04715">
        <ele>1301.6</ele>
        <time>2013-08-10T09:44:25Z</time>
      </trkpt>
      <trkpt lat="42.45643" lon="2.0472">
        <ele>1301.7</ele>
        <time>2013-08-10T09:44:28Z</time>
      </trkpt>
      <trkpt lat="42.45641" lon="2.04725">
        <ele>1302.2</ele>
        <time>2013-08-10T09:44:31Z</time>
      </trkpt>
      <trkpt lat="42.45641" lon="2.0473">
        <ele>1302.8</ele>
        <time>2013-08-10T09:44:34Z</time>
      </trkpt>
      <trkpt lat="42.45641" lon="2.04736">
        <ele>1303.1</ele>
        <time>2013-08-10T09:44:37Z</time>
      </trkpt>
      <trkpt lat="42.4564" lon="2.04741">
        <ele>1303.4</ele>
        <time>2013-08-10T09:44:40Z</time>
      </trkpt>
      <trkpt lat="42.4564" lon="2.04747">
        <ele>1303.8</ele>
        <time>2013-08-10T09:44:43Z</time>
      </trkpt>
      <trkpt lat="42.4564" lon="2.04752">
        <ele>1303.8</ele>
        <time>2013-08-10T09:44:46Z</time>
      </trkpt>
      <trkpt lat="42.45641" lon="2.04758">
        <ele>1303.8</ele>
        <time>2013-08-10T09:44:49Z</time>
      </trkpt>
      <trkpt lat="42.45642" lon="2.04762">
        <ele>1303.8</ele>
        <time>2013-08-10T09:44:51Z</time>
      </trkpt>
      <trkpt lat="42.45642" lon="2.04768">
        <ele>1304.2</ele>
        <time>2013-08-10T09:44:54Z</time>
      </trkpt>
      <trkpt lat="42.45642" lon="2.04774">
        <ele>1303.5</ele>
        <time>2013-08-10T09:44:57Z</time>
      </trkpt>
      <trkpt lat="42.45642" lon="2.04779">
        <ele>1304</ele>
        <time>2013-08-10T09:45:00Z</time>
      </trkpt>
      <trkpt lat="42.45642" lon="2.04784">
        <ele>1304.5</ele>
        <time>2013-08-10T09:45:03Z</time>
      </trkpt>
      <trkpt lat="42.45642" lon="2.04789">
        <ele>1304.8</ele>
        <time>2013-08-10T09:45:06Z</time>
      </trkpt>
      <trkpt lat="42.45642" lon="2.04794">
        <ele>1304.7</ele>
        <time>2013-08-10T09:45:09Z</time>
      </trkpt>
      <trkpt lat="42.45642" lon="2.04799">
        <ele>1305.4</ele>
        <time>2013-08-10T09:45:12Z</time>
      </trkpt>
      <trkpt lat="42.45642" lon="2.04803">
        <ele>1305.6</ele>
        <time>2013-08-10T09:45:14Z</time>
      </trkpt>
      <trkpt lat="42.45642" lon="2.04809">
        <ele>1305.5</ele>
        <time>2013-08-10T09:45:17Z</time>
      </trkpt>
      <trkpt lat="42.45642" lon="2.04811">
        <ele>1305.7</ele>
        <time>2013-08-10T09:45:18Z</time>
      </trkpt>
      <trkpt lat="42.45642" lon="2.04819">
        <ele>1306</ele>
        <time>2013-08-10T09:45:23Z</time>
      </trkpt>
      <trkpt lat="42.45643" lon="2.04824">
        <ele>1306.1</ele>
        <time>2013-08-10T09:45:26Z</time>
      </trkpt>
      <trkpt lat="42.45642" lon="2.04829">
        <ele>1306.6</ele>
        <time>2013-08-10T09:45:29Z</time>
      </trkpt>
      <trkpt lat="42.4564" lon="2.04834">
        <ele>1307</ele>
        <time>2013-08-10T09:45:33Z</time>
      </trkpt>
      <trkpt lat="42.45641" lon="2.04839">
        <ele>1307</ele>
        <time>2013-08-10T09:45:37Z</time>
      </trkpt>
      <trkpt lat="42.45641" lon="2.04845">
        <ele>1306.6</ele>
        <time>2013-08-10T09:45:43Z</time>
      </trkpt>
      <trkpt lat="42.4564" lon="2.0485">
        <ele>1306.8</ele>
        <time>2013-08-10T09:45:46Z</time>
      </trkpt>
      <trkpt lat="42.45638" lon="2.04854">
        <ele>1307.1</ele>
        <time>2013-08-10T09:45:49Z</time>
      </trkpt>
      <trkpt lat="42.45637" lon="2.0486">
        <ele>1307.5</ele>
        <time>2013-08-10T09:45:52Z</time>
      </trkpt>
      <trkpt lat="42.45636" lon="2.04865">
        <ele>1307.5</ele>
        <time>2013-08-10T09:45:56Z</time>
      </trkpt>
      <trkpt lat="42.45637" lon="2.04871">
        <ele>1306.3</ele>
        <time>2013-08-10T09:46:01Z</time>
      </trkpt>
      <trkpt lat="42.45635" lon="2.04876">
        <ele>1306.2</ele>
        <time>2013-08-10T09:46:05Z</time>
      </trkpt>
      <trkpt lat="42.45633" lon="2.04881">
        <ele>1307.3</ele>
        <time>2013-08-10T09:46:08Z</time>
      </trkpt>
      <trkpt lat="42.4563" lon="2.04884">
        <ele>1308.1</ele>
        <time>2013-08-10T09:46:11Z</time>
      </trkpt>
      <trkpt lat="42.45628" lon="2.04887">
        <ele>1308.4</ele>
        <time>2013-08-10T09:46:13Z</time>
      </trkpt>
      <trkpt lat="42.45626" lon="2.04891">
        <ele>1308.5</ele>
        <time>2013-08-10T09:46:16Z</time>
      </trkpt>
      <trkpt lat="42.45624" lon="2.04896">
        <ele>1308.8</ele>
        <time>2013-08-10T09:46:19Z</time>
      </trkpt>
      <trkpt lat="42.45623" lon="2.04897">
        <ele>1308.9</ele>
        <time>2013-08-10T09:46:20Z</time>
      </trkpt>
      <trkpt lat="42.45622" lon="2.04905">
        <ele>1309.2</ele>
        <time>2013-08-10T09:46:25Z</time>
      </trkpt>
      <trkpt lat="42.45622" lon="2.04911">
        <ele>1309.3</ele>
        <time>2013-08-10T09:46:29Z</time>
      </trkpt>
      <trkpt lat="42.45622" lon="2.04916">
        <ele>1309.5</ele>
        <time>2013-08-10T09:46:32Z</time>
      </trkpt>
      <trkpt lat="42.45623" lon="2.04921">
        <ele>1309.7</ele>
        <time>2013-08-10T09:46:36Z</time>
      </trkpt>
      <trkpt lat="42.45623" lon="2.04927">
        <ele>1309.6</ele>
        <time>2013-08-10T09:46:40Z</time>
      </trkpt>
      <trkpt lat="42.45622" lon="2.04931">
        <ele>1309.4</ele>
        <time>2013-08-10T09:46:43Z</time>
      </trkpt>
      <trkpt lat="42.45619" lon="2.04934">
        <ele>1309.5</ele>
        <time>2013-08-10T09:46:45Z</time>
      </trkpt>
      <trkpt lat="42.45618" lon="2.04939">
        <ele>1309.3</ele>
        <time>2013-08-10T09:46:49Z</time>
      </trkpt>
      <trkpt lat="42.45616" lon="2.04943">
        <ele>1309.8</ele>
        <time>2013-08-10T09:46:52Z</time>
      </trkpt>
      <trkpt lat="42.45613" lon="2.04947">
        <ele>1310.5</ele>
        <time>2013-08-10T09:46:55Z</time>
      </trkpt>
      <trkpt lat="42.4561" lon="2.04951">
        <ele>1309.6</ele>
        <time>2013-08-10T09:46:58Z</time>
      </trkpt>
      <trkpt lat="42.45608" lon="2.04955">
        <ele>1309.7</ele>
        <time>2013-08-10T09:47:00Z</time>
      </trkpt>
      <trkpt lat="42.45606" lon="2.04958">
        <ele>1309.8</ele>
        <time>2013-08-10T09:47:02Z</time>
      </trkpt>
      <trkpt lat="42.45603" lon="2.04962">
        <ele>1310.1</ele>
        <time>2013-08-10T09:47:04Z</time>
      </trkpt>
      <trkpt lat="42.45601" lon="2.04966">
        <ele>1310.4</ele>
        <time>2013-08-10T09:47:07Z</time>
      </trkpt>
      <trkpt lat="42.45598" lon="2.0497">
        <ele>1310.6</ele>
        <time>2013-08-10T09:47:09Z</time>
      </trkpt>
      <trkpt lat="42.45596" lon="2.04973">
        <ele>1310.8</ele>
        <time>2013-08-10T09:47:11Z</time>
      </trkpt>
      <trkpt lat="42.45592" lon="2.04977">
        <ele>1311.6</ele>
        <time>2013-08-10T09:47:14Z</time>
      </trkpt>
      <trkpt lat="42.4559" lon="2.0498">
        <ele>1311.8</ele>
        <time>2013-08-10T09:47:16Z</time>
      </trkpt>
      <trkpt lat="42.45588" lon="2.04984">
        <ele>1311.7</ele>
        <time>2013-08-10T09:47:18Z</time>
      </trkpt>
      <trkpt lat="42.45585" lon="2.04987">
        <ele>1311.5</ele>
        <time>2013-08-10T09:47:20Z</time>
      </trkpt>
      <trkpt lat="42.45584" lon="2.04988">
        <ele>1311.5</ele>
        <time>2013-08-10T09:47:21Z</time>
      </trkpt>
      <trkpt lat="42.45579" lon="2.04994">
        <ele>1311</ele>
        <time>2013-08-10T09:47:26Z</time>
      </trkpt>
      <trkpt lat="42.45577" lon="2.04997">
        <ele>1310.9</ele>
        <time>2013-08-10T09:47:29Z</time>
      </trkpt>
      <trkpt lat="42.45574" lon="2.05">
        <ele>1310.9</ele>
        <time>2013-08-10T09:47:32Z</time>
      </trkpt>
      <trkpt lat="42.45571" lon="2.05003">
        <ele>1311.8</ele>
        <time>2013-08-10T09:47:35Z</time>
      </trkpt>
      <trkpt lat="42.45568" lon="2.05007">
        <ele>1312.1</ele>
        <time>2013-08-10T09:47:38Z</time>
      </trkpt>
      <trkpt lat="42.45565" lon="2.0501">
        <ele>1311.9</ele>
        <time>2013-08-10T09:47:40Z</time>
      </trkpt>
      <trkpt lat="42.45563" lon="2.05013">
        <ele>1312.5</ele>
        <time>2013-08-10T09:47:42Z</time>
      </trkpt>
      <trkpt lat="42.4556" lon="2.05016">
        <ele>1312.8</ele>
        <time>2013-08-10T09:47:44Z</time>
      </trkpt>
      <trkpt lat="42.45558" lon="2.0502">
        <ele>1312.9</ele>
        <time>2013-08-10T09:47:47Z</time>
      </trkpt>
      <trkpt lat="42.45555" lon="2.05023">
        <ele>1312.9</ele>
        <time>2013-08-10T09:47:51Z</time>
      </trkpt>
      <trkpt lat="42.45554" lon="2.05027">
        <ele>1312.7</ele>
        <time>2013-08-10T09:47:54Z</time>
      </trkpt>
      <trkpt lat="42.45552" lon="2.05031">
        <ele>1312.5</ele>
        <time>2013-08-10T09:47:56Z</time>
      </trkpt>
      <trkpt lat="42.4555" lon="2.05036">
        <ele>1313.3</ele>
        <time>2013-08-10T09:48:00Z</time>
      </trkpt>
      <trkpt lat="42.45549" lon="2.05042">
        <ele>1313.2</ele>
        <time>2013-08-10T09:48:03Z</time>
      </trkpt>
      <trkpt lat="42.45548" lon="2.05046">
        <ele>1313.4</ele>
        <time>2013-08-10T09:48:06Z</time>
      </trkpt>
      <trkpt lat="42.45547" lon="2.05051">
        <ele>1313.9</ele>
        <time>2013-08-10T09:48:09Z</time>
      </trkpt>
      <trkpt lat="42.45547" lon="2.05056">
        <ele>1314.4</ele>
        <time>2013-08-10T09:48:12Z</time>
      </trkpt>
      <trkpt lat="42.45548" lon="2.05061">
        <ele>1313.4</ele>
        <time>2013-08-10T09:48:15Z</time>
      </trkpt>
      <trkpt lat="42.45549" lon="2.05066">
        <ele>1314</ele>
        <time>2013-08-10T09:48:18Z</time>
      </trkpt>
      <trkpt lat="42.45549" lon="2.05071">
        <ele>1314.1</ele>
        <time>2013-08-10T09:48:20Z</time>
      </trkpt>
      <trkpt lat="42.45548" lon="2.05076">
        <ele>1313.9</ele>
        <time>2013-08-10T09:48:23Z</time>
      </trkpt>
      <trkpt lat="42.45548" lon="2.05078">
        <ele>1313.8</ele>
        <time>2013-08-10T09:48:24Z</time>
      </trkpt>
      <trkpt lat="42.45546" lon="2.05086">
        <ele>1313.7</ele>
        <time>2013-08-10T09:48:29Z</time>
      </trkpt>
      <trkpt lat="42.45546" lon="2.05092">
        <ele>1314</ele>
        <time>2013-08-10T09:48:32Z</time>
      </trkpt>
      <trkpt lat="42.45546" lon="2.05098">
        <ele>1314.3</ele>
        <time>2013-08-10T09:48:35Z</time>
      </trkpt>
      <trkpt lat="42.45546" lon="2.05103">
        <ele>1315</ele>
        <time>2013-08-10T09:48:38Z</time>
      </trkpt>
      <trkpt lat="42.45545" lon="2.05108">
        <ele>1315.5</ele>
        <time>2013-08-10T09:48:41Z</time>
      </trkpt>
      <trkpt lat="42.45544" lon="2.05114">
        <ele>1315.6</ele>
        <time>2013-08-10T09:48:44Z</time>
      </trkpt>
      <trkpt lat="42.45543" lon="2.0512">
        <ele>1315.7</ele>
        <time>2013-08-10T09:48:47Z</time>
      </trkpt>
      <trkpt lat="42.45544" lon="2.05126">
        <ele>1315.7</ele>
        <time>2013-08-10T09:48:50Z</time>
      </trkpt>
      <trkpt lat="42.45544" lon="2.05131">
        <ele>1315.5</ele>
        <time>2013-08-10T09:48:53Z</time>
      </trkpt>
      <trkpt lat="42.45544" lon="2.05136">
        <ele>1315.4</ele>
        <time>2013-08-10T09:48:56Z</time>
      </trkpt>
      <trkpt lat="42.45545" lon="2.05141">
        <ele>1315.9</ele>
        <time>2013-08-10T09:48:59Z</time>
      </trkpt>
      <trkpt lat="42.45545" lon="2.05146">
        <ele>1315.8</ele>
        <time>2013-08-10T09:49:02Z</time>
      </trkpt>
      <trkpt lat="42.45547" lon="2.05152">
        <ele>1315.6</ele>
        <time>2013-08-10T09:49:05Z</time>
      </trkpt>
      <trkpt lat="42.45546" lon="2.05157">
        <ele>1315.4</ele>
        <time>2013-08-10T09:49:08Z</time>
      </trkpt>
      <trkpt lat="42.45544" lon="2.05161">
        <ele>1315.2</ele>
        <time>2013-08-10T09:49:10Z</time>
      </trkpt>
      <trkpt lat="42.45544" lon="2.05166">
        <ele>1315.2</ele>
        <time>2013-08-10T09:49:13Z</time>
      </trkpt>
      <trkpt lat="42.45543" lon="2.05171">
        <ele>1315.4</ele>
        <time>2013-08-10T09:49:16Z</time>
      </trkpt>
      <trkpt lat="42.45542" lon="2.05177">
        <ele>1315.9</ele>
        <time>2013-08-10T09:49:19Z</time>
      </trkpt>
      <trkpt lat="42.45542" lon="2.05182">
        <ele>1315.4</ele>
        <time>2013-08-10T09:49:22Z</time>
      </trkpt>
      <trkpt lat="42.45543" lon="2.05187">
        <ele>1316.5</ele>
        <time>2013-08-10T09:49:25Z</time>
      </trkpt>
      <trkpt lat="42.45543" lon="2.05189">
        <ele>1316.5</ele>
        <time>2013-08-10T09:49:26Z</time>
      </trkpt>
      <trkpt lat="42.45542" lon="2.05198">
        <ele>1316.8</ele>
        <time>2013-08-10T09:49:31Z</time>
      </trkpt>
      <trkpt lat="42.45543" lon="2.05202">
        <ele>1316.4</ele>
        <time>2013-08-10T09:49:34Z</time>
      </trkpt>
      <trkpt lat="42.45543" lon="2.05207">
        <ele>1316.7</ele>
        <time>2013-08-10T09:49:37Z</time>
      </trkpt>
      <trkpt lat="42.45543" lon="2.05212">
        <ele>1316.7</ele>
        <time>2013-08-10T09:49:40Z</time>
      </trkpt>
      <trkpt lat="42.45544" lon="2.05217">
        <ele>1316.7</ele>
        <time>2013-08-10T09:49:43Z</time>
      </trkpt>
      <trkpt lat="42.45544" lon="2.05222">
        <ele>1316.6</ele>
        <time>2013-08-10T09:49:46Z</time>
      </trkpt>
      <trkpt lat="42.45545" lon="2.05227">
        <ele>1316.9</ele>
        <time>2013-08-10T09:49:49Z</time>
      </trkpt>
      <trkpt lat="42.45544" lon="2.05233">
        <ele>1317.7</ele>
        <time>2013-08-10T09:49:52Z</time>
      </trkpt>
      <trkpt lat="42.45542" lon="2.05238">
        <ele>1318</ele>
        <time>2013-08-10T09:49:55Z</time>
      </trkpt>
      <trkpt lat="42.45541" lon="2.05243">
        <ele>1317.9</ele>
        <time>2013-08-10T09:49:59Z</time>
      </trkpt>
      <trkpt lat="42.45538" lon="2.05248">
        <ele>1318.4</ele>
        <time>2013-08-10T09:50:02Z</time>
      </trkpt>
      <trkpt lat="42.45538" lon="2.05253">
        <ele>1318.9</ele>
        <time>2013-08-10T09:50:06Z</time>
      </trkpt>
      <trkpt lat="42.45539" lon="2.05259">
        <ele>1319.5</ele>
        <time>2013-08-10T09:50:10Z</time>
      </trkpt>
      <trkpt lat="42.45539" lon="2.05265">
        <ele>1319.3</ele>
        <time>2013-08-10T09:50:14Z</time>
      </trkpt>
      <trkpt lat="42.4554" lon="2.0527">
        <ele>1319.7</ele>
        <time>2013-08-10T09:50:18Z</time>
      </trkpt>
      <trkpt lat="42.45541" lon="2.05275">
        <ele>1319.9</ele>
        <time>2013-08-10T09:50:21Z</time>
      </trkpt>
      <trkpt lat="42.45542" lon="2.05279">
        <ele>1320.3</ele>
        <time>2013-08-10T09:50:24Z</time>
      </trkpt>
      <trkpt lat="42.45544" lon="2.05283">
        <ele>1320.6</ele>
        <time>2013-08-10T09:50:27Z</time>
      </trkpt>
      <trkpt lat="42.45544" lon="2.05285">
        <ele>1320.5</ele>
        <time>2013-08-10T09:50:28Z</time>
      </trkpt>
      <trkpt lat="42.45547" lon="2.05293">
        <ele>1321.2</ele>
        <time>2013-08-10T09:50:34Z</time>
      </trkpt>
      <trkpt lat="42.45548" lon="2.05297">
        <ele>1321.4</ele>
        <time>2013-08-10T09:50:37Z</time>
      </trkpt>
      <trkpt lat="42.4555" lon="2.05301">
        <ele>1321.8</ele>
        <time>2013-08-10T09:50:40Z</time>
      </trkpt>
      <trkpt lat="42.45553" lon="2.05303">
        <ele>1322.2</ele>
        <time>2013-08-10T09:50:42Z</time>
      </trkpt>
      <trkpt lat="42.45555" lon="2.05308">
        <ele>1322.6</ele>
        <time>2013-08-10T09:50:46Z</time>
      </trkpt>
      <trkpt lat="42.45557" lon="2.05312">
        <ele>1322.5</ele>
        <time>2013-08-10T09:50:49Z</time>
      </trkpt>
      <trkpt lat="42.45559" lon="2.05317">
        <ele>1321.8</ele>
        <time>2013-08-10T09:50:53Z</time>
      </trkpt>
      <trkpt lat="42.45563" lon="2.05321">
        <ele>1322.2</ele>
        <time>2013-08-10T09:50:56Z</time>
      </trkpt>
      <trkpt lat="42.45565" lon="2.05324">
        <ele>1323</ele>
        <time>2013-08-10T09:50:59Z</time>
      </trkpt>
      <trkpt lat="42.45568" lon="2.05327">
        <ele>1323.4</ele>
        <time>2013-08-10T09:51:02Z</time>
      </trkpt>
      <trkpt lat="42.4557" lon="2.05331">
        <ele>1323.3</ele>
        <time>2013-08-10T09:51:05Z</time>
      </trkpt>
      <trkpt lat="42.45573" lon="2.05334">
        <ele>1323.7</ele>
        <time>2013-08-10T09:51:08Z</time>
      </trkpt>
      <trkpt lat="42.45576" lon="2.05338">
        <ele>1324.3</ele>
        <time>2013-08-10T09:51:11Z</time>
      </trkpt>
      <trkpt lat="42.45578" lon="2.05342">
        <ele>1324.5</ele>
        <time>2013-08-10T09:51:15Z</time>
      </trkpt>
      <trkpt lat="42.45581" lon="2.05346">
        <ele>1324.7</ele>
        <time>2013-08-10T09:51:19Z</time>
      </trkpt>
      <trkpt lat="42.45584" lon="2.0535">
        <ele>1325.6</ele>
        <time>2013-08-10T09:51:22Z</time>
      </trkpt>
      <trkpt lat="42.45586" lon="2.05353">
        <ele>1325.9</ele>
        <time>2013-08-10T09:51:25Z</time>
      </trkpt>
      <trkpt lat="42.45589" lon="2.05358">
        <ele>1325.4</ele>
        <time>2013-08-10T09:51:29Z</time>
      </trkpt>
      <trkpt lat="42.4559" lon="2.05359">
        <ele>1325.3</ele>
        <time>2013-08-10T09:51:30Z</time>
      </trkpt>
      <trkpt lat="42.45594" lon="2.05365">
        <ele>1326.2</ele>
        <time>2013-08-10T09:51:36Z</time>
      </trkpt>
      <trkpt lat="42.45597" lon="2.05368">
        <ele>1327.3</ele>
        <time>2013-08-10T09:51:39Z</time>
      </trkpt>
      <trkpt lat="42.45601" lon="2.05371">
        <ele>1327.8</ele>
        <time>2013-08-10T09:51:42Z</time>
      </trkpt>
      <trkpt lat="42.45605" lon="2.05374">
        <ele>1327.5</ele>
        <time>2013-08-10T09:51:45Z</time>
      </trkpt>
      <trkpt lat="42.45608" lon="2.05377">
        <ele>1327.3</ele>
        <time>2013-08-10T09:51:47Z</time>
      </trkpt>
      <trkpt lat="42.45611" lon="2.0538">
        <ele>1327.5</ele>
        <time>2013-08-10T09:51:50Z</time>
      </trkpt>
      <trkpt lat="42.45613" lon="2.05385">
        <ele>1328.4</ele>
        <time>2013-08-10T09:51:54Z</time>
      </trkpt>
      <trkpt lat="42.45614" lon="2.0539">
        <ele>1328.2</ele>
        <time>2013-08-10T09:51:59Z</time>
      </trkpt>
      <trkpt lat="42.45616" lon="2.05395">
        <ele>1328.4</ele>
        <time>2013-08-10T09:52:03Z</time>
      </trkpt>
      <trkpt lat="42.45617" lon="2.054">
        <ele>1328.5</ele>
        <time>2013-08-10T09:52:06Z</time>
      </trkpt>
      <trkpt lat="42.45619" lon="2.05405">
        <ele>1328.8</ele>
        <time>2013-08-10T09:52:09Z</time>
      </trkpt>
      <trkpt lat="42.45621" lon="2.0541">
        <ele>1329.4</ele>
        <time>2013-08-10T09:52:12Z</time>
      </trkpt>
      <trkpt lat="42.45623" lon="2.05415">
        <ele>1329.7</ele>
        <time>2013-08-10T09:52:15Z</time>
      </trkpt>
      <trkpt lat="42.45624" lon="2.0542">
        <ele>1329.6</ele>
        <time>2013-08-10T09:52:18Z</time>
      </trkpt>
      <trkpt lat="42.45625" lon="2.05425">
        <ele>1329.8</ele>
        <time>2013-08-10T09:52:22Z</time>
      </trkpt>
      <trkpt lat="42.45625" lon="2.05431">
        <ele>1330.7</ele>
        <time>2013-08-10T09:52:26Z</time>
      </trkpt>
      <trkpt lat="42.45627" lon="2.05436">
        <ele>1331</ele>
        <time>2013-08-10T09:52:30Z</time>
      </trkpt>
      <trkpt lat="42.45627" lon="2.05438">
        <ele>1331</ele>
        <time>2013-08-10T09:52:31Z</time>
      </trkpt>
      <trkpt lat="42.4563" lon="2.05445">
        <ele>1331</ele>
        <time>2013-08-10T09:52:36Z</time>
      </trkpt>
      <trkpt lat="42.45631" lon="2.0545">
        <ele>1331.9</ele>
        <time>2013-08-10T09:52:39Z</time>
      </trkpt>
      <trkpt lat="42.45632" lon="2.05455">
        <ele>1332</ele>
        <time>2013-08-10T09:52:42Z</time>
      </trkpt>
      <trkpt lat="42.45635" lon="2.05459">
        <ele>1331.9</ele>
        <time>2013-08-10T09:52:45Z</time>
      </trkpt>
      <trkpt lat="42.45636" lon="2.05463">
        <ele>1332.3</ele>
        <time>2013-08-10T09:52:48Z</time>
      </trkpt>
      <trkpt lat="42.45638" lon="2.05467">
        <ele>1332.9</ele>
        <time>2013-08-10T09:52:51Z</time>
      </trkpt>
      <trkpt lat="42.45639" lon="2.05472">
        <ele>1333.3</ele>
        <time>2013-08-10T09:52:54Z</time>
      </trkpt>
      <trkpt lat="42.45641" lon="2.05476">
        <ele>1333.7</ele>
        <time>2013-08-10T09:52:58Z</time>
      </trkpt>
      <trkpt lat="42.45644" lon="2.0548">
        <ele>1333.2</ele>
        <time>2013-08-10T09:53:01Z</time>
      </trkpt>
      <trkpt lat="42.45647" lon="2.05484">
        <ele>1333.4</ele>
        <time>2013-08-10T09:53:04Z</time>
      </trkpt>
      <trkpt lat="42.4565" lon="2.05489">
        <ele>1334.3</ele>
        <time>2013-08-10T09:53:08Z</time>
      </trkpt>
      <trkpt lat="42.45653" lon="2.05492">
        <ele>1334.5</ele>
        <time>2013-08-10T09:53:11Z</time>
      </trkpt>
      <trkpt lat="42.45655" lon="2.05496">
        <ele>1334.8</ele>
        <time>2013-08-10T09:53:14Z</time>
      </trkpt>
      <trkpt lat="42.45659" lon="2.055">
        <ele>1336</ele>
        <time>2013-08-10T09:53:18Z</time>
      </trkpt>
      <trkpt lat="42.45662" lon="2.05503">
        <ele>1335.7</ele>
        <time>2013-08-10T09:53:22Z</time>
      </trkpt>
      <trkpt lat="42.45665" lon="2.05507">
        <ele>1336.5</ele>
        <time>2013-08-10T09:53:27Z</time>
      </trkpt>
      <trkpt lat="42.45668" lon="2.0551">
        <ele>1335.8</ele>
        <time>2013-08-10T09:53:31Z</time>
      </trkpt>
      <trkpt lat="42.45669" lon="2.05511">
        <ele>1335.9</ele>
        <time>2013-08-10T09:53:32Z</time>
      </trkpt>
      <trkpt lat="42.45674" lon="2.05516">
        <ele>1336.9</ele>
        <time>2013-08-10T09:53:37Z</time>
      </trkpt>
      <trkpt lat="42.45677" lon="2.05519">
        <ele>1337.1</ele>
        <time>2013-08-10T09:53:40Z</time>
      </trkpt>
      <trkpt lat="42.4568" lon="2.05523">
        <ele>1336.6</ele>
        <time>2013-08-10T09:53:44Z</time>
      </trkpt>
      <trkpt lat="42.45682" lon="2.05528">
        <ele>1338</ele>
        <time>2013-08-10T09:53:51Z</time>
      </trkpt>
      <trkpt lat="42.45681" lon="2.05533">
        <ele>1337.6</ele>
        <time>2013-08-10T09:53:55Z</time>
      </trkpt>
      <trkpt lat="42.45678" lon="2.05537">
        <ele>1337.7</ele>
        <time>2013-08-10T09:53:59Z</time>
      </trkpt>
      <trkpt lat="42.45676" lon="2.0554">
        <ele>1338.1</ele>
        <time>2013-08-10T09:54:01Z</time>
      </trkpt>
      <trkpt lat="42.45673" lon="2.05544">
        <ele>1338.5</ele>
        <time>2013-08-10T09:54:04Z</time>
      </trkpt>
      <trkpt lat="42.45669" lon="2.05546">
        <ele>1338.4</ele>
        <time>2013-08-10T09:54:07Z</time>
      </trkpt>
      <trkpt lat="42.45665" lon="2.05547">
        <ele>1338.6</ele>
        <time>2013-08-10T09:54:10Z</time>
      </trkpt>
      <trkpt lat="42.45661" lon="2.05548">
        <ele>1339</ele>
        <time>2013-08-10T09:54:13Z</time>
      </trkpt>
      <trkpt lat="42.45657" lon="2.05546">
        <ele>1339.6</ele>
        <time>2013-08-10T09:54:17Z</time>
      </trkpt>
      <trkpt lat="42.45653" lon="2.05546">
        <ele>1339.7</ele>
        <time>2013-08-10T09:54:20Z</time>
      </trkpt>
      <trkpt lat="42.45649" lon="2.05544">
        <ele>1339.5</ele>
        <time>2013-08-10T09:54:23Z</time>
      </trkpt>
      <trkpt lat="42.45646" lon="2.05542">
        <ele>1340</ele>
        <time>2013-08-10T09:54:27Z</time>
      </trkpt>
      <trkpt lat="42.45642" lon="2.05541">
        <ele>1340.6</ele>
        <time>2013-08-10T09:54:30Z</time>
      </trkpt>
      <trkpt lat="42.45639" lon="2.05539">
        <ele>1341</ele>
        <time>2013-08-10T09:54:32Z</time>
      </trkpt>
      <trkpt lat="42.45638" lon="2.05538">
        <ele>1341</ele>
        <time>2013-08-10T09:54:33Z</time>
      </trkpt>
      <trkpt lat="42.45633" lon="2.05536">
        <ele>1341.3</ele>
        <time>2013-08-10T09:54:36Z</time>
      </trkpt>
      <trkpt lat="42.4563" lon="2.05534">
        <ele>1341.7</ele>
        <time>2013-08-10T09:54:39Z</time>
      </trkpt>
      <trkpt lat="42.45626" lon="2.05532">
        <ele>1342</ele>
        <time>2013-08-10T09:54:42Z</time>
      </trkpt>
      <trkpt lat="42.45622" lon="2.05532">
        <ele>1342.2</ele>
        <time>2013-08-10T09:54:46Z</time>
      </trkpt>
      <trkpt lat="42.45618" lon="2.05532">
        <ele>1342.6</ele>
        <time>2013-08-10T09:54:50Z</time>
      </trkpt>
      <trkpt lat="42.45615" lon="2.05532">
        <ele>1342.6</ele>
        <time>2013-08-10T09:54:53Z</time>
      </trkpt>
      <trkpt lat="42.45611" lon="2.05533">
        <ele>1342.9</ele>
        <time>2013-08-10T09:54:56Z</time>
      </trkpt>
      <trkpt lat="42.45608" lon="2.05535">
        <ele>1343.4</ele>
        <time>2013-08-10T09:54:59Z</time>
      </trkpt>
      <trkpt lat="42.45604" lon="2.05538">
        <ele>1344.1</ele>
        <time>2013-08-10T09:55:03Z</time>
      </trkpt>
      <trkpt lat="42.45601" lon="2.05541">
        <ele>1344.4</ele>
        <time>2013-08-10T09:55:06Z</time>
      </trkpt>
      <trkpt lat="42.45597" lon="2.05544">
        <ele>1345</ele>
        <time>2013-08-10T09:55:09Z</time>
      </trkpt>
      <trkpt lat="42.45595" lon="2.05548">
        <ele>1345.1</ele>
        <time>2013-08-10T09:55:12Z</time>
      </trkpt>
      <trkpt lat="42.45592" lon="2.05551">
        <ele>1345.1</ele>
        <time>2013-08-10T09:55:14Z</time>
      </trkpt>
      <trkpt lat="42.4559" lon="2.05556">
        <ele>1345.5</ele>
        <time>2013-08-10T09:55:18Z</time>
      </trkpt>
      <trkpt lat="42.45588" lon="2.0556">
        <ele>1345.8</ele>
        <time>2013-08-10T09:55:21Z</time>
      </trkpt>
      <trkpt lat="42.45586" lon="2.05564">
        <ele>1346.2</ele>
        <time>2013-08-10T09:55:24Z</time>
      </trkpt>
      <trkpt lat="42.45585" lon="2.05569">
        <ele>1346.8</ele>
        <time>2013-08-10T09:55:27Z</time>
      </trkpt>
      <trkpt lat="42.45585" lon="2.05574">
        <ele>1346.9</ele>
        <time>2013-08-10T09:55:30Z</time>
      </trkpt>
      <trkpt lat="42.45586" lon="2.05579">
        <ele>1347</ele>
        <time>2013-08-10T09:55:33Z</time>
      </trkpt>
      <trkpt lat="42.45586" lon="2.05581">
        <ele>1347.2</ele>
        <time>2013-08-10T09:55:34Z</time>
      </trkpt>
      <trkpt lat="42.45587" lon="2.05589">
        <ele>1347.6</ele>
        <time>2013-08-10T09:55:39Z</time>
      </trkpt>
      <trkpt lat="42.45586" lon="2.05594">
        <ele>1347.6</ele>
        <time>2013-08-10T09:55:42Z</time>
      </trkpt>
      <trkpt lat="42.45585" lon="2.05599">
        <ele>1348.6</ele>
        <time>2013-08-10T09:55:46Z</time>
      </trkpt>
      <trkpt lat="42.45583" lon="2.05604">
        <ele>1349</ele>
        <time>2013-08-10T09:55:50Z</time>
      </trkpt>
      <trkpt lat="42.45583" lon="2.05609">
        <ele>1349.4</ele>
        <time>2013-08-10T09:55:54Z</time>
      </trkpt>
      <trkpt lat="42.45584" lon="2.05614">
        <ele>1349.6</ele>
        <time>2013-08-10T09:55:57Z</time>
      </trkpt>
      <trkpt lat="42.45582" lon="2.0562">
        <ele>1350.3</ele>
        <time>2013-08-10T09:56:01Z</time>
      </trkpt>
      <trkpt lat="42.45581" lon="2.05625">
        <ele>1350.5</ele>
        <time>2013-08-10T09:56:05Z</time>
      </trkpt>
      <trkpt lat="42.45579" lon="2.0563">
        <ele>1351.4</ele>
        <time>2013-08-10T09:56:10Z</time>
      </trkpt>
      <trkpt lat="42.45577" lon="2.05635">
        <ele>1352.3</ele>
        <time>2013-08-10T09:56:14Z</time>
      </trkpt>
      <trkpt lat="42.45577" lon="2.0564">
        <ele>1352.2</ele>
        <time>2013-08-10T09:56:17Z</time>
      </trkpt>
      <trkpt lat="42.45579" lon="2.05645">
        <ele>1352.5</ele>
        <time>2013-08-10T09:56:20Z</time>
      </trkpt>
      <trkpt lat="42.45578" lon="2.0565">
        <ele>1353.9</ele>
        <time>2013-08-10T09:56:23Z</time>
      </trkpt>
      <trkpt lat="42.45578" lon="2.05655">
        <ele>1353</ele>
        <time>2013-08-10T09:56:26Z</time>
      </trkpt>
      <trkpt lat="42.45578" lon="2.0566">
        <ele>1353</ele>
        <time>2013-08-10T09:56:29Z</time>
      </trkpt>
      <trkpt lat="42.45577" lon="2.05666">
        <ele>1353.8</ele>
        <time>2013-08-10T09:56:32Z</time>
      </trkpt>
      <trkpt lat="42.45577" lon="2.05671">
        <ele>1354.3</ele>
        <time>2013-08-10T09:56:35Z</time>
      </trkpt>
      <trkpt lat="42.45577" lon="2.05673">
        <ele>1354.5</ele>
        <time>2013-08-10T09:56:36Z</time>
      </trkpt>
      <trkpt lat="42.45578" lon="2.05682">
        <ele>1354.6</ele>
        <time>2013-08-10T09:56:41Z</time>
      </trkpt>
      <trkpt lat="42.45577" lon="2.05687">
        <ele>1355.1</ele>
        <time>2013-08-10T09:56:44Z</time>
      </trkpt>
      <trkpt lat="42.45576" lon="2.05691">
        <ele>1355.5</ele>
        <time>2013-08-10T09:56:47Z</time>
      </trkpt>
      <trkpt lat="42.45575" lon="2.05696">
        <ele>1355.7</ele>
        <time>2013-08-10T09:56:49Z</time>
      </trkpt>
      <trkpt lat="42.45573" lon="2.05701">
        <ele>1355.7</ele>
        <time>2013-08-10T09:56:52Z</time>
      </trkpt>
      <trkpt lat="42.45571" lon="2.05706">
        <ele>1356.8</ele>
        <time>2013-08-10T09:56:55Z</time>
      </trkpt>
      <trkpt lat="42.45569" lon="2.0571">
        <ele>1357</ele>
        <time>2013-08-10T09:56:57Z</time>
      </trkpt>
      <trkpt lat="42.45567" lon="2.05714">
        <ele>1357.4</ele>
        <time>2013-08-10T09:57:00Z</time>
      </trkpt>
      <trkpt lat="42.45564" lon="2.05718">
        <ele>1357.6</ele>
        <time>2013-08-10T09:57:03Z</time>
      </trkpt>
      <trkpt lat="42.45562" lon="2.05723">
        <ele>1357.6</ele>
        <time>2013-08-10T09:57:06Z</time>
      </trkpt>
      <trkpt lat="42.4556" lon="2.05726">
        <ele>1357.5</ele>
        <time>2013-08-10T09:57:09Z</time>
      </trkpt>
      <trkpt lat="42.45559" lon="2.05731">
        <ele>1357.5</ele>
        <time>2013-08-10T09:57:12Z</time>
      </trkpt>
      <trkpt lat="42.45559" lon="2.05737">
        <ele>1358.5</ele>
        <time>2013-08-10T09:57:17Z</time>
      </trkpt>
      <trkpt lat="42.45559" lon="2.05743">
        <ele>1358.9</ele>
        <time>2013-08-10T09:57:21Z</time>
      </trkpt>
      <trkpt lat="42.45557" lon="2.05747">
        <ele>1359.8</ele>
        <time>2013-08-10T09:57:24Z</time>
      </trkpt>
      <trkpt lat="42.45554" lon="2.05752">
        <ele>1360.1</ele>
        <time>2013-08-10T09:57:28Z</time>
      </trkpt>
      <trkpt lat="42.45551" lon="2.05755">
        <ele>1360.4</ele>
        <time>2013-08-10T09:57:31Z</time>
      </trkpt>
      <trkpt lat="42.45548" lon="2.05758">
        <ele>1360.8</ele>
        <time>2013-08-10T09:57:34Z</time>
      </trkpt>
      <trkpt lat="42.45544" lon="2.0576">
        <ele>1360.2</ele>
        <time>2013-08-10T09:57:37Z</time>
      </trkpt>
      <trkpt lat="42.45543" lon="2.05761">
        <ele>1360.3</ele>
        <time>2013-08-10T09:57:38Z</time>
      </trkpt>
      <trkpt lat="42.45537" lon="2.05766">
        <ele>1361.4</ele>
        <time>2013-08-10T09:57:43Z</time>
      </trkpt>
      <trkpt lat="42.45534" lon="2.05769">
        <ele>1361.5</ele>
        <time>2013-08-10T09:57:46Z</time>
      </trkpt>
      <trkpt lat="42.45532" lon="2.05775">
        <ele>1362.1</ele>
        <time>2013-08-10T09:57:50Z</time>
      </trkpt>
      <trkpt lat="42.4553" lon="2.05778">
        <ele>1362.5</ele>
        <time>2013-08-10T09:57:53Z</time>
      </trkpt>
      <trkpt lat="42.45527" lon="2.05782">
        <ele>1362.8</ele>
        <time>2013-08-10T09:57:56Z</time>
      </trkpt>
      <trkpt lat="42.45524" lon="2.05785">
        <ele>1362.7</ele>
        <time>2013-08-10T09:57:59Z</time>
      </trkpt>
      <trkpt lat="42.45521" lon="2.05789">
        <ele>1363.6</ele>
        <time>2013-08-10T09:58:02Z</time>
      </trkpt>
      <trkpt lat="42.45518" lon="2.05793">
        <ele>1364.1</ele>
        <time>2013-08-10T09:58:05Z</time>
      </trkpt>
      <trkpt lat="42.45515" lon="2.05798">
        <ele>1364.5</ele>
        <time>2013-08-10T09:58:09Z</time>
      </trkpt>
      <trkpt lat="42.45513" lon="2.05801">
        <ele>1364.8</ele>
        <time>2013-08-10T09:58:12Z</time>
      </trkpt>
      <trkpt lat="42.4551" lon="2.05804">
        <ele>1364.8</ele>
        <time>2013-08-10T09:58:15Z</time>
      </trkpt>
      <trkpt lat="42.45508" lon="2.05808">
        <ele>1365.9</ele>
        <time>2013-08-10T09:58:18Z</time>
      </trkpt>
      <trkpt lat="42.45505" lon="2.05811">
        <ele>1365.6</ele>
        <time>2013-08-10T09:58:21Z</time>
      </trkpt>
      <trkpt lat="42.45503" lon="2.05817">
        <ele>1366.3</ele>
        <time>2013-08-10T09:58:25Z</time>
      </trkpt>
      <trkpt lat="42.45502" lon="2.05822">
        <ele>1366.8</ele>
        <time>2013-08-10T09:58:29Z</time>
      </trkpt>
      <trkpt lat="42.45501" lon="2.05826">
        <ele>1366.9</ele>
        <time>2013-08-10T09:58:32Z</time>
      </trkpt>
      <trkpt lat="42.45499" lon="2.0583">
        <ele>1367.2</ele>
        <time>2013-08-10T09:58:35Z</time>
      </trkpt>
      <trkpt lat="42.45498" lon="2.05835">
        <ele>1367.6</ele>
        <time>2013-08-10T09:58:38Z</time>
      </trkpt>
      <trkpt lat="42.45498" lon="2.05836">
        <ele>1367.7</ele>
        <time>2013-08-10T09:58:39Z</time>
      </trkpt>
      <trkpt lat="42.45497" lon="2.05846">
        <ele>1368.8</ele>
        <time>2013-08-10T09:58:45Z</time>
      </trkpt>
      <trkpt lat="42.45496" lon="2.05851">
        <ele>1369.3</ele>
        <time>2013-08-10T09:58:48Z</time>
      </trkpt>
      <trkpt lat="42.45494" lon="2.05856">
        <ele>1370.1</ele>
        <time>2013-08-10T09:58:52Z</time>
      </trkpt>
      <trkpt lat="42.45493" lon="2.05861">
        <ele>1370.6</ele>
        <time>2013-08-10T09:58:57Z</time>
      </trkpt>
      <trkpt lat="42.45491" lon="2.05866">
        <ele>1371.2</ele>
        <time>2013-08-10T09:59:01Z</time>
      </trkpt>
      <trkpt lat="42.4549" lon="2.05871">
        <ele>1371.4</ele>
        <time>2013-08-10T09:59:04Z</time>
      </trkpt>
      <trkpt lat="42.45489" lon="2.05876">
        <ele>1371.8</ele>
        <time>2013-08-10T09:59:08Z</time>
      </trkpt>
      <trkpt lat="42.45489" lon="2.05882">
        <ele>1372.6</ele>
        <time>2013-08-10T09:59:12Z</time>
      </trkpt>
      <trkpt lat="42.45487" lon="2.05886">
        <ele>1373.3</ele>
        <time>2013-08-10T09:59:15Z</time>
      </trkpt>
      <trkpt lat="42.45487" lon="2.05891">
        <ele>1373.2</ele>
        <time>2013-08-10T09:59:18Z</time>
      </trkpt>
      <trkpt lat="42.45486" lon="2.05896">
        <ele>1373.1</ele>
        <time>2013-08-10T09:59:21Z</time>
      </trkpt>
      <trkpt lat="42.45484" lon="2.05901">
        <ele>1373.5</ele>
        <time>2013-08-10T09:59:25Z</time>
      </trkpt>
      <trkpt lat="42.45482" lon="2.05906">
        <ele>1374.4</ele>
        <time>2013-08-10T09:59:29Z</time>
      </trkpt>
      <trkpt lat="42.45481" lon="2.05911">
        <ele>1374.8</ele>
        <time>2013-08-10T09:59:33Z</time>
      </trkpt>
      <trkpt lat="42.45479" lon="2.05915">
        <ele>1375.1</ele>
        <time>2013-08-10T09:59:36Z</time>
      </trkpt>
      <trkpt lat="42.45477" lon="2.05921">
        <ele>1375.1</ele>
        <time>2013-08-10T09:59:40Z</time>
      </trkpt>
      <trkpt lat="42.45477" lon="2.05923">
        <ele>1375.1</ele>
        <time>2013-08-10T09:59:41Z</time>
      </trkpt>
      <trkpt lat="42.45476" lon="2.05931">
        <ele>1376.9</ele>
        <time>2013-08-10T09:59:47Z</time>
      </trkpt>
      <trkpt lat="42.45475" lon="2.05937">
        <ele>1377.2</ele>
        <time>2013-08-10T09:59:51Z</time>
      </trkpt>
      <trkpt lat="42.45475" lon="2.05942">
        <ele>1377</ele>
        <time>2013-08-10T09:59:55Z</time>
      </trkpt>
      <trkpt lat="42.45474" lon="2.05947">
        <ele>1377.7</ele>
        <time>2013-08-10T09:59:59Z</time>
      </trkpt>
      <trkpt lat="42.45473" lon="2.05952">
        <ele>1378.2</ele>
        <time>2013-08-10T10:00:03Z</time>
      </trkpt>
      <trkpt lat="42.45472" lon="2.05957">
        <ele>1378.4</ele>
        <time>2013-08-10T10:00:07Z</time>
      </trkpt>
      <trkpt lat="42.45471" lon="2.05962">
        <ele>1379</ele>
        <time>2013-08-10T10:00:11Z</time>
      </trkpt>
      <trkpt lat="42.4547" lon="2.05966">
        <ele>1379.1</ele>
        <time>2013-08-10T10:00:14Z</time>
      </trkpt>
      <trkpt lat="42.4547" lon="2.05972">
        <ele>1379.8</ele>
        <time>2013-08-10T10:00:18Z</time>
      </trkpt>
      <trkpt lat="42.45468" lon="2.05977">
        <ele>1379.9</ele>
        <time>2013-08-10T10:00:23Z</time>
      </trkpt>
      <trkpt lat="42.45467" lon="2.05982">
        <ele>1380.2</ele>
        <time>2013-08-10T10:00:26Z</time>
      </trkpt>
      <trkpt lat="42.45467" lon="2.05987">
        <ele>1380.5</ele>
        <time>2013-08-10T10:00:30Z</time>
      </trkpt>
      <trkpt lat="42.45465" lon="2.05992">
        <ele>1381.2</ele>
        <time>2013-08-10T10:00:34Z</time>
      </trkpt>
      <trkpt lat="42.45465" lon="2.05998">
        <ele>1382.6</ele>
        <time>2013-08-10T10:00:39Z</time>
      </trkpt>
      <trkpt lat="42.45464" lon="2.06004">
        <ele>1383.3</ele>
        <time>2013-08-10T10:00:43Z</time>
      </trkpt>
      <trkpt lat="42.45464" lon="2.06005">
        <ele>1383.1</ele>
        <time>2013-08-10T10:00:44Z</time>
      </trkpt>
      <trkpt lat="42.45463" lon="2.06014">
        <ele>1383.9</ele>
        <time>2013-08-10T10:00:51Z</time>
      </trkpt>
      <trkpt lat="42.45462" lon="2.0602">
        <ele>1384</ele>
        <time>2013-08-10T10:00:55Z</time>
      </trkpt>
      <trkpt lat="42.45461" lon="2.06024">
        <ele>1384.3</ele>
        <time>2013-08-10T10:00:58Z</time>
      </trkpt>
      <trkpt lat="42.45459" lon="2.06028">
        <ele>1385.1</ele>
        <time>2013-08-10T10:01:01Z</time>
      </trkpt>
      <trkpt lat="42.45459" lon="2.06033">
        <ele>1385.8</ele>
        <time>2013-08-10T10:01:04Z</time>
      </trkpt>
      <trkpt lat="42.4546" lon="2.06038">
        <ele>1386.4</ele>
        <time>2013-08-10T10:01:07Z</time>
      </trkpt>
      <trkpt lat="42.45462" lon="2.06043">
        <ele>1387.1</ele>
        <time>2013-08-10T10:01:11Z</time>
      </trkpt>
      <trkpt lat="42.45464" lon="2.06046">
        <ele>1386.6</ele>
        <time>2013-08-10T10:01:13Z</time>
      </trkpt>
      <trkpt lat="42.45467" lon="2.06051">
        <ele>1386.8</ele>
        <time>2013-08-10T10:01:16Z</time>
      </trkpt>
      <trkpt lat="42.45467" lon="2.06056">
        <ele>1386.9</ele>
        <time>2013-08-10T10:01:20Z</time>
      </trkpt>
      <trkpt lat="42.45466" lon="2.06062">
        <ele>1388</ele>
        <time>2013-08-10T10:01:24Z</time>
      </trkpt>
      <trkpt lat="42.45466" lon="2.06066">
        <ele>1388.6</ele>
        <time>2013-08-10T10:01:27Z</time>
      </trkpt>
      <trkpt lat="42.45466" lon="2.06071">
        <ele>1389.2</ele>
        <time>2013-08-10T10:01:30Z</time>
      </trkpt>
      <trkpt lat="42.45467" lon="2.06076">
        <ele>1390.3</ele>
        <time>2013-08-10T10:01:33Z</time>
      </trkpt>
      <trkpt lat="42.45467" lon="2.06081">
        <ele>1390.6</ele>
        <time>2013-08-10T10:01:36Z</time>
      </trkpt>
      <trkpt lat="42.45468" lon="2.06086">
        <ele>1390</ele>
        <time>2013-08-10T10:01:39Z</time>
      </trkpt>
      <trkpt lat="42.45468" lon="2.0609">
        <ele>1390.2</ele>
        <time>2013-08-10T10:01:42Z</time>
      </trkpt>
      <trkpt lat="42.45468" lon="2.06096">
        <ele>1390.5</ele>
        <time>2013-08-10T10:01:46Z</time>
      </trkpt>
      <trkpt lat="42.45468" lon="2.06098">
        <ele>1390.8</ele>
        <time>2013-08-10T10:01:47Z</time>
      </trkpt>
      <trkpt lat="42.4547" lon="2.06106">
        <ele>1392.1</ele>
        <time>2013-08-10T10:01:54Z</time>
      </trkpt>
      <trkpt lat="42.45472" lon="2.0611">
        <ele>1392.7</ele>
        <time>2013-08-10T10:01:58Z</time>
      </trkpt>
      <trkpt lat="42.45475" lon="2.06114">
        <ele>1394.3</ele>
        <time>2013-08-10T10:02:02Z</time>
      </trkpt>
      <trkpt lat="42.45478" lon="2.06119">
        <ele>1394.3</ele>
        <time>2013-08-10T10:02:07Z</time>
      </trkpt>
      <trkpt lat="42.4548" lon="2.06124">
        <ele>1393.8</ele>
        <time>2013-08-10T10:02:12Z</time>
      </trkpt>
      <trkpt lat="42.4548" lon="2.06129">
        <ele>1394.9</ele>
        <time>2013-08-10T10:02:16Z</time>
      </trkpt>
      <trkpt lat="42.45481" lon="2.06135">
        <ele>1396.3</ele>
        <time>2013-08-10T10:02:22Z</time>
      </trkpt>
      <trkpt lat="42.45481" lon="2.06141">
        <ele>1397.3</ele>
        <time>2013-08-10T10:02:27Z</time>
      </trkpt>
      <trkpt lat="42.45481" lon="2.06147">
        <ele>1398.5</ele>
        <time>2013-08-10T10:02:32Z</time>
      </trkpt>
      <trkpt lat="42.45479" lon="2.06152">
        <ele>1399.7</ele>
        <time>2013-08-10T10:02:37Z</time>
      </trkpt>
      <trkpt lat="42.45476" lon="2.06155">
        <ele>1399.7</ele>
        <time>2013-08-10T10:02:41Z</time>
      </trkpt>
      <trkpt lat="42.45473" lon="2.06158">
        <ele>1400.3</ele>
        <time>2013-08-10T10:02:45Z</time>
      </trkpt>
      <trkpt lat="42.4547" lon="2.06162">
        <ele>1400.9</ele>
        <time>2013-08-10T10:02:49Z</time>
      </trkpt>
      <trkpt lat="42.4547" lon="2.06163">
        <ele>1400.9</ele>
        <time>2013-08-10T10:02:50Z</time>
      </trkpt>
      <trkpt lat="42.45465" lon="2.06172">
        <ele>1401.6</ele>
        <time>2013-08-10T10:02:57Z</time>
      </trkpt>
      <trkpt lat="42.45464" lon="2.06176">
        <ele>1401.7</ele>
        <time>2013-08-10T10:03:00Z</time>
      </trkpt>
      <trkpt lat="42.45462" lon="2.06181">
        <ele>1402</ele>
        <time>2013-08-10T10:03:03Z</time>
      </trkpt>
      <trkpt lat="42.45462" lon="2.06186">
        <ele>1402</ele>
        <time>2013-08-10T10:03:06Z</time>
      </trkpt>
      <trkpt lat="42.45461" lon="2.06191">
        <ele>1401.8</ele>
        <time>2013-08-10T10:03:09Z</time>
      </trkpt>
      <trkpt lat="42.45461" lon="2.06197">
        <ele>1402.4</ele>
        <time>2013-08-10T10:03:12Z</time>
      </trkpt>
      <trkpt lat="42.4546" lon="2.06203">
        <ele>1402.5</ele>
        <time>2013-08-10T10:03:16Z</time>
      </trkpt>
      <trkpt lat="42.4546" lon="2.06207">
        <ele>1402.3</ele>
        <time>2013-08-10T10:03:20Z</time>
      </trkpt>
      <trkpt lat="42.45459" lon="2.06213">
        <ele>1402.4</ele>
        <time>2013-08-10T10:03:24Z</time>
      </trkpt>
      <trkpt lat="42.45458" lon="2.06219">
        <ele>1403.3</ele>
        <time>2013-08-10T10:03:28Z</time>
      </trkpt>
      <trkpt lat="42.45458" lon="2.06223">
        <ele>1403.7</ele>
        <time>2013-08-10T10:03:32Z</time>
      </trkpt>
      <trkpt lat="42.45459" lon="2.06228">
        <ele>1404</ele>
        <time>2013-08-10T10:03:35Z</time>
      </trkpt>
      <trkpt lat="42.45461" lon="2.06234">
        <ele>1404.1</ele>
        <time>2013-08-10T10:03:39Z</time>
      </trkpt>
      <trkpt lat="42.45463" lon="2.06239">
        <ele>1404.3</ele>
        <time>2013-08-10T10:03:43Z</time>
      </trkpt>
      <trkpt lat="42.45465" lon="2.06242">
        <ele>1404.6</ele>
        <time>2013-08-10T10:03:46Z</time>
      </trkpt>
      <trkpt lat="42.45469" lon="2.06244">
        <ele>1404.9</ele>
        <time>2013-08-10T10:03:49Z</time>
      </trkpt>
      <trkpt lat="42.45473" lon="2.06247">
        <ele>1405.5</ele>
        <time>2013-08-10T10:03:53Z</time>
      </trkpt>
      <trkpt lat="42.45473" lon="2.06247">
        <ele>1405.7</ele>
        <time>2013-08-10T10:03:54Z</time>
      </trkpt>
      <trkpt lat="42.45479" lon="2.06253">
        <ele>1407</ele>
        <time>2013-08-10T10:04:01Z</time>
      </trkpt>
      <trkpt lat="42.45483" lon="2.06255">
        <ele>1408.1</ele>
        <time>2013-08-10T10:04:05Z</time>
      </trkpt>
      <trkpt lat="42.45487" lon="2.06256">
        <ele>1408.8</ele>
        <time>2013-08-10T10:04:09Z</time>
      </trkpt>
      <trkpt lat="42.45491" lon="2.06258">
        <ele>1409.4</ele>
        <time>2013-08-10T10:04:13Z</time>
      </trkpt>
      <trkpt lat="42.45495" lon="2.0626">
        <ele>1410</ele>
        <time>2013-08-10T10:04:18Z</time>
      </trkpt>
      <trkpt lat="42.45497" lon="2.06264">
        <ele>1411</ele>
        <time>2013-08-10T10:04:23Z</time>
      </trkpt>
      <trkpt lat="42.45498" lon="2.06269">
        <ele>1411.8</ele>
        <time>2013-08-10T10:04:27Z</time>
      </trkpt>
      <trkpt lat="42.45497" lon="2.06275">
        <ele>1412.1</ele>
        <time>2013-08-10T10:04:31Z</time>
      </trkpt>
      <trkpt lat="42.45494" lon="2.06279">
        <ele>1412.6</ele>
        <time>2013-08-10T10:04:37Z</time>
      </trkpt>
      <trkpt lat="42.45491" lon="2.06281">
        <ele>1413</ele>
        <time>2013-08-10T10:04:41Z</time>
      </trkpt>
      <trkpt lat="42.45487" lon="2.06283">
        <ele>1413.8</ele>
        <time>2013-08-10T10:04:44Z</time>
      </trkpt>
      <trkpt lat="42.45483" lon="2.06285">
        <ele>1414.9</ele>
        <time>2013-08-10T10:04:49Z</time>
      </trkpt>
      <trkpt lat="42.45482" lon="2.06291">
        <ele>1417.1</ele>
        <time>2013-08-10T10:05:00Z</time>
      </trkpt>
      <trkpt lat="42.45482" lon="2.06291">
        <ele>1417.4</ele>
        <time>2013-08-10T10:05:01Z</time>
      </trkpt>
      <trkpt lat="42.45487" lon="2.06301">
        <ele>1419.9</ele>
        <time>2013-08-10T10:05:14Z</time>
      </trkpt>
      <trkpt lat="42.45488" lon="2.06306">
        <ele>1421.6</ele>
        <time>2013-08-10T10:05:24Z</time>
      </trkpt>
      <trkpt lat="42.4549" lon="2.06311">
        <ele>1421.7</ele>
        <time>2013-08-10T10:05:29Z</time>
      </trkpt>
      <trkpt lat="42.45493" lon="2.06315">
        <ele>1423.9</ele>
        <time>2013-08-10T10:05:34Z</time>
      </trkpt>
      <trkpt lat="42.45495" lon="2.0632">
        <ele>1426.3</ele>
        <time>2013-08-10T10:05:56Z</time>
      </trkpt>
      <trkpt lat="42.45498" lon="2.06324">
        <ele>1426.3</ele>
        <time>2013-08-10T10:06:19Z</time>
      </trkpt>
      <trkpt lat="42.45499" lon="2.06325">
        <ele>1426.5</ele>
        <time>2013-08-10T10:06:20Z</time>
      </trkpt>
      <trkpt lat="42.45503" lon="2.06332">
        <ele>1428.6</ele>
        <time>2013-08-10T10:06:28Z</time>
      </trkpt>
      <trkpt lat="42.45507" lon="2.06335">
        <ele>1429.8</ele>
        <time>2013-08-10T10:06:33Z</time>
      </trkpt>
      <trkpt lat="42.45507" lon="2.0634">
        <ele>1430.7</ele>
        <time>2013-08-10T10:06:38Z</time>
      </trkpt>
      <trkpt lat="42.45506" lon="2.06345">
        <ele>1431.7</ele>
        <time>2013-08-10T10:06:42Z</time>
      </trkpt>
      <trkpt lat="42.45504" lon="2.0635">
        <ele>1432.3</ele>
        <time>2013-08-10T10:06:47Z</time>
      </trkpt>
      <trkpt lat="42.45504" lon="2.06355">
        <ele>1432.8</ele>
        <time>2013-08-10T10:06:51Z</time>
      </trkpt>
      <trkpt lat="42.45506" lon="2.0636">
        <ele>1434.3</ele>
        <time>2013-08-10T10:06:57Z</time>
      </trkpt>
      <trkpt lat="42.45508" lon="2.06364">
        <ele>1434.5</ele>
        <time>2013-08-10T10:07:01Z</time>
      </trkpt>
      <trkpt lat="42.45511" lon="2.06369">
        <ele>1435.5</ele>
        <time>2013-08-10T10:07:06Z</time>
      </trkpt>
      <trkpt lat="42.45512" lon="2.06374">
        <ele>1436.6</ele>
        <time>2013-08-10T10:07:12Z</time>
      </trkpt>
      <trkpt lat="42.45516" lon="2.06378">
        <ele>1437.4</ele>
        <time>2013-08-10T10:07:16Z</time>
      </trkpt>
      <trkpt lat="42.45519" lon="2.06383">
        <ele>1438.1</ele>
        <time>2013-08-10T10:07:21Z</time>
      </trkpt>
      <trkpt lat="42.45519" lon="2.06384">
        <ele>1438.6</ele>
        <time>2013-08-10T10:07:22Z</time>
      </trkpt>
      <trkpt lat="42.4552" lon="2.06394">
        <ele>1439.8</ele>
        <time>2013-08-10T10:07:31Z</time>
      </trkpt>
      <trkpt lat="42.45522" lon="2.06399">
        <ele>1440.4</ele>
        <time>2013-08-10T10:07:37Z</time>
      </trkpt>
      <trkpt lat="42.45522" lon="2.06404">
        <ele>1441.7</ele>
        <time>2013-08-10T10:07:41Z</time>
      </trkpt>
      <trkpt lat="42.45523" lon="2.06409">
        <ele>1442</ele>
        <time>2013-08-10T10:07:46Z</time>
      </trkpt>
      <trkpt lat="42.45524" lon="2.06415">
        <ele>1442.8</ele>
        <time>2013-08-10T10:07:50Z</time>
      </trkpt>
      <trkpt lat="42.45525" lon="2.0642">
        <ele>1443.4</ele>
        <time>2013-08-10T10:07:55Z</time>
      </trkpt>
      <trkpt lat="42.45526" lon="2.06425">
        <ele>1444.2</ele>
        <time>2013-08-10T10:07:59Z</time>
      </trkpt>
      <trkpt lat="42.45527" lon="2.06431">
        <ele>1444.4</ele>
        <time>2013-08-10T10:08:03Z</time>
      </trkpt>
      <trkpt lat="42.45528" lon="2.06436">
        <ele>1445.1</ele>
        <time>2013-08-10T10:08:08Z</time>
      </trkpt>
      <trkpt lat="42.45529" lon="2.0644">
        <ele>1445.9</ele>
        <time>2013-08-10T10:08:12Z</time>
      </trkpt>
      <trkpt lat="42.45531" lon="2.06446">
        <ele>1446.6</ele>
        <time>2013-08-10T10:08:17Z</time>
      </trkpt>
      <trkpt lat="42.45533" lon="2.0645">
        <ele>1447.6</ele>
        <time>2013-08-10T10:08:22Z</time>
      </trkpt>
      <trkpt lat="42.45534" lon="2.06451">
        <ele>1447.8</ele>
        <time>2013-08-10T10:08:23Z</time>
      </trkpt>
      <trkpt lat="42.45538" lon="2.06459">
        <ele>1451</ele>
        <time>2013-08-10T10:08:37Z</time>
      </trkpt>
      <trkpt lat="42.45539" lon="2.06465">
        <ele>1451.6</ele>
        <time>2013-08-10T10:08:41Z</time>
      </trkpt>
      <trkpt lat="42.45541" lon="2.0647">
        <ele>1452.7</ele>
        <time>2013-08-10T10:08:46Z</time>
      </trkpt>
      <trkpt lat="42.45543" lon="2.06473">
        <ele>1453.5</ele>
        <time>2013-08-10T10:08:50Z</time>
      </trkpt>
      <trkpt lat="42.45546" lon="2.06478">
        <ele>1454.1</ele>
        <time>2013-08-10T10:08:54Z</time>
      </trkpt>
      <trkpt lat="42.45547" lon="2.06482">
        <ele>1454.1</ele>
        <time>2013-08-10T10:08:57Z</time>
      </trkpt>
      <trkpt lat="42.45548" lon="2.06487">
        <ele>1453.9</ele>
        <time>2013-08-10T10:09:00Z</time>
      </trkpt>
      <trkpt lat="42.45551" lon="2.06482">
        <ele>1457.9</ele>
        <time>2013-08-10T10:09:31Z</time>
      </trkpt>
      <trkpt lat="42.4555" lon="2.06481">
        <ele>1458</ele>
        <time>2013-08-10T10:09:32Z</time>
      </trkpt>
      <trkpt lat="42.45552" lon="2.06471">
        <ele>1458.3</ele>
        <time>2013-08-10T10:09:37Z</time>
      </trkpt>
      <trkpt lat="42.45553" lon="2.06466">
        <ele>1458.3</ele>
        <time>2013-08-10T10:09:41Z</time>
      </trkpt>
      <trkpt lat="42.45554" lon="2.06465">
        <ele>1459.4</ele>
        <time>2013-08-10T10:09:54Z</time>
      </trkpt>
      <trkpt lat="42.45554" lon="2.06465">
        <ele>1459.4</ele>
        <time>2013-08-10T10:09:54Z</time>
      </trkpt>
    </trkseg>
  </trk>
</gpx>